Latest Coastal Weather Observations for Point Perpendicular

IDN60701

Issued at 12:11 pm EST Saturday 27 May 2017 (issued every 10 minutes, with the page automatically refreshed every 10 minutes)

About coastal observations | Map of coastal stations | Coastal observations for NSW | Marine services | Other Formats
Station Details ID: 068151 Name: POINT PERPENDICULAR AWS Lat: -35.09 Lon: 150.80 Height: 85.0 m
Data from the previous 72 hours. | See also: Recent months at Point Perpendicular
Date/Time
EST
Temp
°C
Wind Pressure Rain since
9am
mm
Weather Cloud Vis
km
Sea
Height
m
Swell
Dir  Spd
kts
Gust
kts
hPa Trend Height
m
Period
s
Dir
27/12:00pm 17.0 NNE 7 10 1019.7 - 0.0 - - - - - - -
27/11:30am 16.0 NE 6 9 1020.3 - 0.0 - - - - - - -
27/11:00am 15.8 NNE 5 8 1021.0 - 0.0 - - - - - - -
27/10:30am 16.2 WNW 2 5 1021.4 - 0.0 - - - - - - -
27/10:00am 16.2 WNW 3 5 1021.6 - 0.0 - - - - - - -
27/09:30am 15.6 WNW 3 5 1021.7 - 0.0 - - - - - - -
27/09:00am 15.0 WNW 2 5 1021.7 - 0.0 - - - - - - -
27/08:30am 14.2 NW 3 7 1021.9 - 0.0 - - - - - - -
27/08:00am 13.8 NW 2 4 1021.9 - 0.0 - - - - - - -
27/07:30am 12.6 NW 4 5 1021.9 - 0.0 - - - - - - -
27/07:00am 12.6 WNW 4 5 1021.6 - 0.0 - - - - - - -
27/06:30am 13.0 WNW 3 5 1021.5 - 0.0 - - - - - - -
27/06:00am 13.7 WNW 2 3 1021.2 - 0.0 - - - - - - -
27/05:30am 14.3 WNW 1 2 1021.1 - 0.0 - - - - - - -
27/05:00am 14.2 W 1 1 1021.0 - 0.0 - - - - - - -
27/04:30am 14.1 W 1 2 1020.9 - 0.0 - - - - - - -
27/04:00am 13.8 W 1 2 1021.1 - 0.0 - - - - - - -
27/03:30am 13.6 WNW 2 3 1021.3 - 0.0 - - - - - - -
27/03:00am 13.9 WNW 2 3 1021.4 - 0.0 - - - - - - -
27/02:30am 14.0 WNW 2 3 1021.6 - 0.0 - - - - - - -
27/02:00am 13.8 NW 3 5 1021.6 - 0.0 - - - - - - -
27/01:30am 13.8 NW 3 4 1021.9 - 0.0 - - - - - - -
27/01:00am 15.9 ENE 2 4 1021.9 - 0.0 - - - - - - -
27/12:30am 16.2 E 4 6 1022.1 - 0.0 - - - - - - -
27/12:00am 16.2 E 3 6 1022.2 - 0.0 - - - - - - -
 
Date/Time
EST
Temp
°C
Wind Pressure Rain since
9am
mm
Weather Cloud Vis
km
Sea
Height
m
Swell
Dir  Spd
kts
Gust
kts
hPa Trend Height
m
Period
s
Dir
26/11:30pm 16.1 E 3 5 1022.2 - 0.0 - - - - - - -
26/11:00pm 16.0 ESE 4 7 1022.1 - 0.0 - - - - - - -
26/10:30pm 14.9 ESE 5 9 1022.3 - 0.0 - - - - - - -
26/10:00pm 15.1 E 3 7 1022.3 - 0.0 - - - - - - -
26/09:30pm 15.3 N 2 4 1022.3 - 0.0 - - - - - - -
26/09:00pm 15.6 NW 2 4 1022.4 - 0.0 - - - - - - -
26/08:30pm 16.6 ESE 2 5 1022.2 - 0.0 - - - - - - -
26/08:00pm 16.6 SE 3 6 1022.1 - 0.0 - - - - - - -
26/07:30pm 16.6 ESE 4 7 1021.9 - 0.0 - - - - - - -
26/07:00pm 16.1 SE 2 2 1021.6 - 0.0 - - - - - - -
26/06:30pm 16.0 SSE 2 2 1021.4 - 0.0 - - - - - - -
26/06:00pm 16.0 S 2 3 1021.2 - 0.0 - - - - - - -
26/05:30pm 16.0 S 2 3 1021.2 - 0.0 - - - - - - -
26/05:00pm 16.2 S 2 3 1021.0 - 0.0 - - - - - - -
26/04:30pm 16.4 S 4 6 1020.8 - 0.0 - - - - - - -
26/04:00pm 17.0 S 5 7 1020.5 - 0.0 - - - - - - -
26/03:30pm 17.4 S 5 8 1020.3 - 0.0 - - - - - - -
26/03:00pm 17.9 S 4 8 1020.2 - 0.0 - - - - - - -
26/02:30pm 17.9 S 5 7 1020.2 - 0.0 - - - - - - -
26/02:00pm 17.6 SSW 6 9 1020.2 - 0.0 - - - - - - -
26/01:30pm 17.4 SSW 7 10 1020.4 - 0.0 - - - - - - -
26/01:00pm 17.1 SSW 7 10 1020.4 - 0.0 - - - - - - -
26/12:30pm 17.2 SSW 7 10 1020.6 - 0.0 - - - - - - -
26/12:00pm 16.9 SSW 7 10 1020.8 - 0.0 - - - - - - -
26/11:30am 17.0 SW 5 8 1021.1 - 0.0 - - - - - - -
26/11:00am 17.0 WSW 3 6 1021.4 - 0.0 - - - - - - -
26/10:30am 16.3 W 3 6 1021.5 - 0.0 - - - - - - -
26/10:00am 15.5 WSW 3 6 1021.5 - 0.0 - - - - - - -
26/09:30am 14.6 W 2 4 1021.4 - 0.0 - - - - - - -
26/09:00am 14.1 WNW 3 6 1021.2 - 0.0 - - - - - - -
26/08:30am 13.0 WNW 5 7 1021.1 - 0.0 - - - - - - -
26/08:00am 12.3 WNW 4 6 1020.8 - 0.0 - - - - - - -
26/07:30am 11.6 WNW 5 8 1020.6 - 0.0 - - - - - - -
26/07:00am 11.7 WNW 5 6 1020.3 - 0.0 - - - - - - -
26/06:30am 11.5 WNW 4 6 1020.2 - 0.0 - - - - - - -
26/06:00am 11.8 WNW 5 8 1019.8 - 0.0 - - - - - - -
26/05:30am 11.8 WNW 5 7 1019.6 - 0.0 - - - - - - -
26/05:00am 11.4 WNW 3 5 1019.2 - 0.0 - - - - - - -
26/04:30am 11.9 WNW 3 4 1019.1 - 0.0 - - - - - - -
26/04:00am 11.6 WNW 4 6 1018.9 - 0.0 - - - - - - -
26/03:30am 11.9 WNW 4 7 1018.8 - 0.0 - - - - - - -
26/03:00am 11.9 WNW 4 5 1018.8 - 0.0 - - - - - - -
26/02:30am 12.0 WNW 5 7 1018.7 - 0.0 - - - - - - -
26/02:00am 12.0 WNW 3 4 1018.8 - 0.0 - - - - - - -
26/01:30am 12.2 WNW 4 6 1018.8 - 0.0 - - - - - - -
26/01:00am 12.4 WNW 4 7 1018.8 - 0.0 - - - - - - -
26/12:30am 12.5 WNW 6 10 1018.8 - 0.0 - - - - - - -
26/12:00am 12.7 WNW 6 11 1018.9 - 0.0 - - - - - - -
 
Date/Time
EST
Temp
°C
Wind Pressure Rain since
9am
mm
Weather Cloud Vis
km
Sea
Height
m
Swell
Dir  Spd
kts
Gust
kts
hPa Trend Height
m
Period
s
Dir
25/11:30pm 12.9 NW 7 10 1019.0 - 0.0 - - - - - - -
25/11:00pm 12.9 NW 7 10 1019.2 - 0.0 - - - - - - -
25/10:30pm 13.0 NW 8 11 1019.5 - 0.0 - - - - - - -
25/10:00pm 13.5 NW 9 11 1019.5 - 0.0 - - - - - - -
25/09:30pm 13.9 NW 8 10 1019.5 - 0.0 - - - - - - -
25/09:00pm 14.3 NNW 7 9 1019.5 - 0.0 - - - - - - -
25/08:30pm 14.2 NNW 6 8 1019.5 - 0.0 - - - - - - -
25/08:00pm 14.4 N 6 8 1019.2 - 0.0 - - - - - - -
25/07:30pm 14.3 N 7 9 1019.4 - 0.0 - - - - - - -
25/07:00pm 14.2 NNE 8 8 1019.2 - 0.0 - - - - - - -
25/06:30pm 13.9 NNE 7 8 1019.1 - 0.0 - - - - - - -
25/06:00pm 14.4 NNE 5 5 1019.1 - 0.0 - - - - - - -
25/05:30pm 14.8 NE 5 6 1018.8 - 0.0 - - - - - - -
25/05:00pm 15.8 E 5 6 1018.6 - 0.0 - - - - - - -
25/04:30pm 16.1 E 2 3 1018.5 - 0.0 - - - - - - -
25/04:00pm 16.9 ENE 5 6 1018.3 - 0.0 - - - - - - -
25/03:30pm 17.3 E 5 6 1018.4 - 0.0 - - - - - - -
25/03:00pm 17.7 E 3 5 1018.5 - 0.0 - - - - - - -
25/02:30pm 18.0 ENE 4 6 1018.7 - 0.0 - - - - - - -
25/02:00pm 17.9 WNW 3 6 1018.8 - 0.0 - - - - - - -
25/01:30pm 18.2 WNW 2 5 1019.0 - 0.0 - - - - - - -
25/01:00pm 17.5 SW 2 4 1019.2 - 0.0 - - - - - - -
25/12:30pm 17.4 WSW 2 6 1019.6 - 0.0 - - - - - - -
25/12:00pm 17.1 NW 3 6 1019.9 - 0.0 - - - - - - -
25/11:30am 16.4 WNW 3 5 1020.4 - 0.0 - - - - - - -
25/11:00am 15.7 WNW 4 7 1020.7 - 0.0 - - - - - - -
25/10:30am 15.2 WNW 5 8 1020.9 - 0.0 - - - - - - -
25/10:00am 14.3 WNW 6 10 1021.1 - 0.0 - - - - - - -
25/09:30am 13.7 WNW 5 11 1021.1 - 0.0 - - - - - - -
25/09:00am 13.1 WNW 5 9 1020.8 - 0.0 - - - - - - -
25/08:30am 12.6 WNW 5 8 1020.7 - 0.0 - - - - - - -
25/08:00am 12.0 WNW 4 8 1020.5 - 0.0 - - - - - - -
25/07:30am 11.7 WNW 4 7 1020.1 - 0.0 - - - - - - -
25/07:00am 11.2 WNW 4 6 1020.0 - 0.0 - - - - - - -
25/06:30am 11.4 WNW 3 6 1019.6 - 0.0 - - - - - - -
25/06:00am 11.2 WNW 4 7 1019.1 - 0.0 - - - - - - -
25/05:30am 11.3 WNW 4 5 1018.9 - 0.0 - - - - - - -
25/05:00am 11.6 WNW 4 7 1018.9 - 0.0 - - - - - - -
25/04:30am 11.9 NW 6 8 1018.8 - 0.0 - - - - - - -
25/04:00am 11.7 WNW 5 7 1018.7 - 0.0 - - - - - - -
25/03:30am 13.7 WNW 4 5 1018.5 - 0.0 - - - - - - -
25/03:00am 13.5 WNW 5 6 1018.4 - 0.0 - - - - - - -
25/02:30am 13.6 WNW 3 4 1018.3 - 0.0 - - - - - - -
25/02:00am 13.8 W 2 4 1018.3 - 0.0 - - - - - - -
25/01:30am 13.9 WNW 3 4 1018.5 - 0.0 - - - - - - -
25/01:00am 13.7 WNW 4 5 1018.3 - 0.0 - - - - - - -
25/12:30am 14.3 NW 5 6 1018.2 - 0.0 - - - - - - -
25/12:00am 14.4 W 2 4 1018.0 - 0.0 - - - - - - -
 
Date/Time
EST
Temp
°C
Wind Pressure Rain since
9am
mm
Weather Cloud Vis
km
Sea
Height
m
Swell
Dir  Spd
kts
Gust
kts
hPa Trend Height
m
Period
s
Dir
24/11:30pm 14.6 W 2 6 1018.1 - 0.0 - - - - - - -
24/11:00pm 14.8 W 3 7 1017.9 - 0.0 - - - - - - -
24/10:30pm 15.1 W 4 9 1017.7 - 0.0 - - - - - - -
24/10:00pm 15.4 W 4 9 1017.5 - 0.0 - - - - - - -
24/09:30pm 15.5 WSW 5 10 1017.6 - 0.0 - - - - - - -
24/09:00pm 15.6 W 5 9 1017.4 - 0.0 - - - - - - -
24/08:30pm 15.8 WSW 6 11 1017.1 - 0.0 - - - - - - -
24/08:00pm 16.1 WSW 7 13 1016.8 - 0.0 - - - - - - -
24/07:30pm 16.3 WSW 4 10 1016.4 - 0.0 - - - - - - -
24/07:00pm 16.3 WSW 5 10 1016.1 - 0.0 - - - - - - -
24/06:30pm 16.9 W 4 9 1015.4 - 0.0 - - - - - - -
24/06:00pm 17.1 W 4 8 1014.9 - 0.0 - - - - - - -
24/05:30pm 17.4 W 4 10 1014.3 - 0.0 - - - - - - -
24/05:00pm 17.7 W 5 8 1013.9 - 0.0 - - - - - - -
24/04:30pm 18.3 W 5 9 1013.4 - 0.0 - - - - - - -
24/04:00pm 18.9 W 5 10 1012.9 - 0.0 - - - - - - -
24/03:30pm 19.3 W 4 7 1012.5 - 0.0 - - - - - - -
24/03:00pm 19.5 W 5 10 1012.2 - 0.0 - - - - - - -
24/02:30pm 19.5 W 6 16 1011.4 - 0.0 - - - - - - -
24/02:00pm 19.6 W 6 13 1011.7 - 0.0 - - - - - - -
24/01:30pm 19.6 W 5 10 1011.2 - 0.0 - - - - - - -
24/01:00pm 19.6 W 7 13 1011.3 - 0.0 - - - - - - -
24/12:30pm 19.4 W 6 17 1011.3 - 0.0 - - - - - - -

Other Formats:

Comma delimited format used in spreadsheet applications
http://www.bom.gov.au/fwo/IDN60701/IDN60701.95940.axf

JavaScript Object Notation format (JSON) in row-major order
http://www.bom.gov.au/fwo/IDN60701/IDN60701.95940.json